sensor_id;sensor_type;location;lat;lon;timestamp;temperature;humidity
32787;DHT22;19139;49.372;8.580;2023-09-07T00:01:34;22.30;96.20
32787;DHT22;19139;49.372;8.580;2023-09-07T00:04:01;22.30;96.20
32787;DHT22;19139;49.372;8.580;2023-09-07T00:06:30;22.30;96.20
32787;DHT22;19139;49.372;8.580;2023-09-07T00:08:57;22.30;96.20
32787;DHT22;19139;49.372;8.580;2023-09-07T00:11:23;22.20;96.20
32787;DHT22;19139;49.372;8.580;2023-09-07T00:13:50;22.20;96.20
32787;DHT22;19139;49.372;8.580;2023-09-07T00:16:17;22.20;96.20
32787;DHT22;19139;49.372;8.580;2023-09-07T00:18:44;22.20;96.20
32787;DHT22;19139;49.372;8.580;2023-09-07T00:21:10;22.20;96.20
32787;DHT22;19139;49.372;8.580;2023-09-07T00:23:37;22.10;96.30
32787;DHT22;19139;49.372;8.580;2023-09-07T00:26:04;22.10;96.40
32787;DHT22;19139;49.372;8.580;2023-09-07T00:28:30;22.10;96.30
32787;DHT22;19139;49.372;8.580;2023-09-07T00:30:58;22.10;96.40
32787;DHT22;19139;49.372;8.580;2023-09-07T00:33:24;22.00;96.40
32787;DHT22;19139;49.372;8.580;2023-09-07T00:35:51;22.00;96.40
32787;DHT22;19139;49.372;8.580;2023-09-07T00:38:18;22.00;96.50
32787;DHT22;19139;49.372;8.580;2023-09-07T00:40:45;22.00;96.40
32787;DHT22;19139;49.372;8.580;2023-09-07T00:43:12;22.00;96.40
32787;DHT22;19139;49.372;8.580;2023-09-07T00:45:39;22.00;96.30
32787;DHT22;19139;49.372;8.580;2023-09-07T00:48:06;22.00;96.40
32787;DHT22;19139;49.372;8.580;2023-09-07T00:50:34;21.90;96.40
32787;DHT22;19139;49.372;8.580;2023-09-07T00:53:01;21.90;96.40
32787;DHT22;19139;49.372;8.580;2023-09-07T00:55:29;21.90;96.40
32787;DHT22;19139;49.372;8.580;2023-09-07T00:58:00;21.90;96.50
32787;DHT22;19139;49.372;8.580;2023-09-07T01:00:27;21.80;96.50
32787;DHT22;19139;49.372;8.580;2023-09-07T01:02:53;21.80;96.50
32787;DHT22;19139;49.372;8.580;2023-09-07T01:05:27;21.70;96.50
32787;DHT22;19139;49.372;8.580;2023-09-07T01:08:00;21.60;96.60
32787;DHT22;19139;49.372;8.580;2023-09-07T01:10:30;21.60;96.70
32787;DHT22;19139;49.372;8.580;2023-09-07T01:12:56;21.60;96.80
32787;DHT22;19139;49.372;8.580;2023-09-07T01:15:23;21.50;96.90
32787;DHT22;19139;49.372;8.580;2023-09-07T01:17:50;21.50;97.10
32787;DHT22;19139;49.372;8.580;2023-09-07T01:20:18;21.50;97.20
32787;DHT22;19139;49.372;8.580;2023-09-07T01:22:47;21.50;97.30
32787;DHT22;19139;49.372;8.580;2023-09-07T01:25:14;21.50;97.30
32787;DHT22;19139;49.372;8.580;2023-09-07T01:27:41;21.50;97.50
32787;DHT22;19139;49.372;8.580;2023-09-07T01:30:08;21.50;97.50
32787;DHT22;19139;49.372;8.580;2023-09-07T01:32:35;21.50;97.50
32787;DHT22;19139;49.372;8.580;2023-09-07T01:35:04;21.50;97.50
32787;DHT22;19139;49.372;8.580;2023-09-07T01:37:33;21.50;97.60
32787;DHT22;19139;49.372;8.580;2023-09-07T01:39:59;21.50;97.60
32787;DHT22;19139;49.372;8.580;2023-09-07T01:42:27;21.50;97.60
32787;DHT22;19139;49.372;8.580;2023-09-07T01:44:54;21.50;97.60
32787;DHT22;19139;49.372;8.580;2023-09-07T01:47:20;21.50;97.50
32787;DHT22;19139;49.372;8.580;2023-09-07T01:49:47;21.50;97.60
32787;DHT22;19139;49.372;8.580;2023-09-07T01:52:14;21.50;97.60
32787;DHT22;19139;49.372;8.580;2023-09-07T01:54:41;21.40;97.70
32787;DHT22;19139;49.372;8.580;2023-09-07T01:57:07;21.40;97.80
32787;DHT22;19139;49.372;8.580;2023-09-07T01:59:34;21.40;97.80
32787;DHT22;19139;49.372;8.580;2023-09-07T02:02:01;21.30;97.80
32787;DHT22;19139;49.372;8.580;2023-09-07T02:04:27;21.30;97.80
32787;DHT22;19139;49.372;8.580;2023-09-07T02:06:54;21.30;97.90
32787;DHT22;19139;49.372;8.580;2023-09-07T02:09:21;21.30;97.90
32787;DHT22;19139;49.372;8.580;2023-09-07T02:11:47;21.20;97.90
32787;DHT22;19139;49.372;8.580;2023-09-07T02:14:15;21.20;97.80
32787;DHT22;19139;49.372;8.580;2023-09-07T02:16:42;21.20;97.80
32787;DHT22;19139;49.372;8.580;2023-09-07T02:19:09;21.20;97.90
32787;DHT22;19139;49.372;8.580;2023-09-07T02:21:36;21.20;97.80
32787;DHT22;19139;49.372;8.580;2023-09-07T02:24:03;21.20;97.80
32787;DHT22;19139;49.372;8.580;2023-09-07T02:26:30;21.10;97.80
32787;DHT22;19139;49.372;8.580;2023-09-07T02:28:56;21.10;97.90
32787;DHT22;19139;49.372;8.580;2023-09-07T02:31:23;21.10;97.80
32787;DHT22;19139;49.372;8.580;2023-09-07T02:33:50;21.10;97.90
32787;DHT22;19139;49.372;8.580;2023-09-07T02:36:17;21.10;97.90
32787;DHT22;19139;49.372;8.580;2023-09-07T02:38:43;21.00;97.90
32787;DHT22;19139;49.372;8.580;2023-09-07T02:41:10;21.00;97.90
32787;DHT22;19139;49.372;8.580;2023-09-07T02:43:37;21.00;97.90
32787;DHT22;19139;49.372;8.580;2023-09-07T02:46:03;21.00;97.90
32787;DHT22;19139;49.372;8.580;2023-09-07T02:48:30;20.90;98.00
32787;DHT22;19139;49.372;8.580;2023-09-07T02:50:57;20.90;98.00
32787;DHT22;19139;49.372;8.580;2023-09-07T02:53:25;20.90;98.10
32787;DHT22;19139;49.372;8.580;2023-09-07T02:55:52;20.90;98.20
32787;DHT22;19139;49.372;8.580;2023-09-07T02:58:18;20.90;98.20
32787;DHT22;19139;49.372;8.580;2023-09-07T03:00:45;20.90;98.20
32787;DHT22;19139;49.372;8.580;2023-09-07T03:03:14;20.90;98.10
32787;DHT22;19139;49.372;8.580;2023-09-07T03:05:42;21.00;98.00
32787;DHT22;19139;49.372;8.580;2023-09-07T03:08:09;21.00;97.90
32787;DHT22;19139;49.372;8.580;2023-09-07T03:10:36;21.00;97.80
32787;DHT22;19139;49.372;8.580;2023-09-07T03:13:06;20.90;97.80
32787;DHT22;19139;49.372;8.580;2023-09-07T03:15:33;20.90;97.70
32787;DHT22;19139;49.372;8.580;2023-09-07T03:18:00;20.90;97.80
32787;DHT22;19139;49.372;8.580;2023-09-07T03:20:27;20.90;98.00
32787;DHT22;19139;49.372;8.580;2023-09-07T03:22:54;20.90;98.10
32787;DHT22;19139;49.372;8.580;2023-09-07T03:25:22;20.90;98.30
32787;DHT22;19139;49.372;8.580;2023-09-07T03:27:49;20.90;98.40
32787;DHT22;19139;49.372;8.580;2023-09-07T03:30:16;20.90;98.40
32787;DHT22;19139;49.372;8.580;2023-09-07T03:32:43;20.80;98.50
32787;DHT22;19139;49.372;8.580;2023-09-07T03:35:10;20.80;98.60
32787;DHT22;19139;49.372;8.580;2023-09-07T03:37:37;20.80;98.70
32787;DHT22;19139;49.372;8.580;2023-09-07T03:40:05;20.80;98.70
32787;DHT22;19139;49.372;8.580;2023-09-07T03:42:32;20.80;98.70
32787;DHT22;19139;49.372;8.580;2023-09-07T03:44:59;20.80;98.60
32787;DHT22;19139;49.372;8.580;2023-09-07T03:47:26;20.80;98.70
32787;DHT22;19139;49.372;8.580;2023-09-07T03:49:57;20.70;98.80
32787;DHT22;19139;49.372;8.580;2023-09-07T03:52:25;20.70;98.80
32787;DHT22;19139;49.372;8.580;2023-09-07T03:54:56;20.70;98.70
32787;DHT22;19139;49.372;8.580;2023-09-07T03:57:24;20.70;98.90
32787;DHT22;19139;49.372;8.580;2023-09-07T03:59:51;20.60;99.00
32787;DHT22;19139;49.372;8.580;2023-09-07T04:02:17;20.60;99.20
32787;DHT22;19139;49.372;8.580;2023-09-07T04:04:49;20.60;99.30
32787;DHT22;19139;49.372;8.580;2023-09-07T04:07:16;20.50;99.50
32787;DHT22;19139;49.372;8.580;2023-09-07T04:09:44;20.40;99.90
32787;DHT22;19139;49.372;8.580;2023-09-07T04:12:11;20.40;99.90
32787;DHT22;19139;49.372;8.580;2023-09-07T04:14:38;20.40;99.90
32787;DHT22;19139;49.372;8.580;2023-09-07T04:17:05;20.40;99.90
32787;DHT22;19139;49.372;8.580;2023-09-07T04:19:32;20.40;99.90
32787;DHT22;19139;49.372;8.580;2023-09-07T04:22:00;20.40;99.90
32787;DHT22;19139;49.372;8.580;2023-09-07T04:24:27;20.40;99.90
32787;DHT22;19139;49.372;8.580;2023-09-07T04:27:01;20.40;99.90
32787;DHT22;19139;49.372;8.580;2023-09-07T04:29:28;20.40;99.90
32787;DHT22;19139;49.372;8.580;2023-09-07T04:31:55;20.40;99.90
32787;DHT22;19139;49.372;8.580;2023-09-07T04:34:22;20.40;99.90
32787;DHT22;19139;49.372;8.580;2023-09-07T04:36:49;20.40;99.90
32787;DHT22;19139;49.372;8.580;2023-09-07T04:39:16;20.40;99.90
32787;DHT22;19139;49.372;8.580;2023-09-07T04:41:42;20.40;99.90
32787;DHT22;19139;49.372;8.580;2023-09-07T04:44:09;20.40;99.90
32787;DHT22;19139;49.372;8.580;2023-09-07T04:46:36;20.40;99.90
32787;DHT22;19139;49.372;8.580;2023-09-07T04:49:02;20.40;99.90
32787;DHT22;19139;49.372;8.580;2023-09-07T04:51:29;20.40;99.90
32787;DHT22;19139;49.372;8.580;2023-09-07T04:53:56;20.40;99.90
32787;DHT22;19139;49.372;8.580;2023-09-07T04:56:23;20.40;99.90
32787;DHT22;19139;49.372;8.580;2023-09-07T04:58:52;20.40;99.90
32787;DHT22;19139;49.372;8.580;2023-09-07T05:01:18;20.40;99.90
32787;DHT22;19139;49.372;8.580;2023-09-07T05:03:45;20.40;99.90
32787;DHT22;19139;49.372;8.580;2023-09-07T05:06:12;20.40;99.90
32787;DHT22;19139;49.372;8.580;2023-09-07T05:08:40;20.40;99.90
32787;DHT22;19139;49.372;8.580;2023-09-07T05:11:06;20.40;99.90
32787;DHT22;19139;49.372;8.580;2023-09-07T05:13:33;20.40;99.90
32787;DHT22;19139;49.372;8.580;2023-09-07T05:16:00;20.40;99.90
32787;DHT22;19139;49.372;8.580;2023-09-07T05:18:27;20.40;99.90
32787;DHT22;19139;49.372;8.580;2023-09-07T05:20:54;20.40;99.90
32787;DHT22;19139;49.372;8.580;2023-09-07T05:23:22;20.40;99.90
32787;DHT22;19139;49.372;8.580;2023-09-07T05:25:51;20.40;99.90
32787;DHT22;19139;49.372;8.580;2023-09-07T05:28:20;20.40;99.90
32787;DHT22;19139;49.372;8.580;2023-09-07T05:30:47;20.30;99.90
32787;DHT22;19139;49.372;8.580;2023-09-07T05:33:15;20.30;99.90
32787;DHT22;19139;49.372;8.580;2023-09-07T05:35:43;20.30;99.90
32787;DHT22;19139;49.372;8.580;2023-09-07T05:38:10;20.30;99.90
32787;DHT22;19139;49.372;8.580;2023-09-07T05:40:38;20.30;99.90
32787;DHT22;19139;49.372;8.580;2023-09-07T05:43:05;20.30;99.90
32787;DHT22;19139;49.372;8.580;2023-09-07T05:45:35;20.40;99.90
32787;DHT22;19139;49.372;8.580;2023-09-07T05:48:03;20.40;99.90
32787;DHT22;19139;49.372;8.580;2023-09-07T05:50:33;20.40;99.90
32787;DHT22;19139;49.372;8.580;2023-09-07T05:53:00;20.40;99.90
32787;DHT22;19139;49.372;8.580;2023-09-07T05:55:26;20.40;99.90
32787;DHT22;19139;49.372;8.580;2023-09-07T05:57:57;20.40;99.90
32787;DHT22;19139;49.372;8.580;2023-09-07T06:00:24;20.50;99.90
32787;DHT22;19139;49.372;8.580;2023-09-07T06:02:51;20.50;99.90
32787;DHT22;19139;49.372;8.580;2023-09-07T06:05:18;20.50;99.90
32787;DHT22;19139;49.372;8.580;2023-09-07T06:07:45;20.50;99.90
32787;DHT22;19139;49.372;8.580;2023-09-07T06:10:12;20.60;99.90
32787;DHT22;19139;49.372;8.580;2023-09-07T06:12:39;20.60;99.90
32787;DHT22;19139;49.372;8.580;2023-09-07T06:15:07;20.60;99.90
32787;DHT22;19139;49.372;8.580;2023-09-07T06:17:34;20.70;99.90
32787;DHT22;19139;49.372;8.580;2023-09-07T06:20:01;20.80;99.90
32787;DHT22;19139;49.372;8.580;2023-09-07T06:22:27;20.80;99.90
32787;DHT22;19139;49.372;8.580;2023-09-07T06:24:54;20.90;99.90
32787;DHT22;19139;49.372;8.580;2023-09-07T06:27:21;20.90;99.90
32787;DHT22;19139;49.372;8.580;2023-09-07T06:29:47;20.90;99.90
32787;DHT22;19139;49.372;8.580;2023-09-07T06:32:14;20.90;99.90
32787;DHT22;19139;49.372;8.580;2023-09-07T06:34:41;21.00;99.90
32787;DHT22;19139;49.372;8.580;2023-09-07T06:37:07;21.00;99.90
32787;DHT22;19139;49.372;8.580;2023-09-07T06:39:34;21.00;99.90
32787;DHT22;19139;49.372;8.580;2023-09-07T06:42:01;21.10;99.90
32787;DHT22;19139;49.372;8.580;2023-09-07T06:44:30;21.10;99.90
32787;DHT22;19139;49.372;8.580;2023-09-07T06:46:56;21.20;99.90
32787;DHT22;19139;49.372;8.580;2023-09-07T06:49:23;21.20;99.90
32787;DHT22;19139;49.372;8.580;2023-09-07T06:51:50;21.30;99.90
32787;DHT22;19139;49.372;8.580;2023-09-07T06:54:17;21.40;99.90
32787;DHT22;19139;49.372;8.580;2023-09-07T06:56:43;21.40;99.90
32787;DHT22;19139;49.372;8.580;2023-09-07T06:59:10;21.50;99.90
32787;DHT22;19139;49.372;8.580;2023-09-07T07:01:37;21.50;99.90
32787;DHT22;19139;49.372;8.580;2023-09-07T07:04:04;21.50;99.90
32787;DHT22;19139;49.372;8.580;2023-09-07T07:06:31;21.50;99.90
32787;DHT22;19139;49.372;8.580;2023-09-07T07:08:57;21.60;99.90
32787;DHT22;19139;49.372;8.580;2023-09-07T07:11:24;21.60;99.90
32787;DHT22;19139;49.372;8.580;2023-09-07T07:13:51;21.70;99.90
32787;DHT22;19139;49.372;8.580;2023-09-07T07:16:17;21.70;99.90
32787;DHT22;19139;49.372;8.580;2023-09-07T07:18:44;21.70;99.90
32787;DHT22;19139;49.372;8.580;2023-09-07T07:21:11;21.80;99.90
32787;DHT22;19139;49.372;8.580;2023-09-07T07:23:37;21.80;99.90
32787;DHT22;19139;49.372;8.580;2023-09-07T07:26:04;21.80;99.90
32787;DHT22;19139;49.372;8.580;2023-09-07T07:28:31;21.80;99.90
32787;DHT22;19139;49.372;8.580;2023-09-07T07:30:57;21.90;99.90
32787;DHT22;19139;49.372;8.580;2023-09-07T07:33:24;21.90;99.90
32787;DHT22;19139;49.372;8.580;2023-09-07T07:35:51;21.90;99.90
32787;DHT22;19139;49.372;8.580;2023-09-07T07:38:17;21.90;99.90
32787;DHT22;19139;49.372;8.580;2023-09-07T07:40:46;21.90;99.90
32787;DHT22;19139;49.372;8.580;2023-09-07T07:43:13;22.00;99.90
32787;DHT22;19139;49.372;8.580;2023-09-07T07:45:40;22.00;99.70
32787;DHT22;19139;49.372;8.580;2023-09-07T07:48:07;22.00;99.70
32787;DHT22;19139;49.372;8.580;2023-09-07T07:50:40;22.10;99.70
32787;DHT22;19139;49.372;8.580;2023-09-07T07:53:07;22.10;99.60
32787;DHT22;19139;49.372;8.580;2023-09-07T07:55:37;22.10;99.50
32787;DHT22;19139;49.372;8.580;2023-09-07T07:58:08;22.20;99.50
32787;DHT22;19139;49.372;8.580;2023-09-07T08:00:36;22.20;99.40
32787;DHT22;19139;49.372;8.580;2023-09-07T08:03:03;22.20;99.40
32787;DHT22;19139;49.372;8.580;2023-09-07T08:05:32;22.20;99.30
32787;DHT22;19139;49.372;8.580;2023-09-07T08:08:00;22.30;99.30
32787;DHT22;19139;49.372;8.580;2023-09-07T08:10:26;22.30;99.20
32787;DHT22;19139;49.372;8.580;2023-09-07T08:12:57;22.30;99.10
32787;DHT22;19139;49.372;8.580;2023-09-07T08:15:24;22.30;99.10
32787;DHT22;19139;49.372;8.580;2023-09-07T08:17:51;22.40;99.10
32787;DHT22;19139;49.372;8.580;2023-09-07T08:20:19;22.40;99.00
32787;DHT22;19139;49.372;8.580;2023-09-07T08:22:46;22.40;98.90
32787;DHT22;19139;49.372;8.580;2023-09-07T08:25:13;22.40;98.90
32787;DHT22;19139;49.372;8.580;2023-09-07T08:27:41;22.40;98.80
32787;DHT22;19139;49.372;8.580;2023-09-07T08:30:14;22.40;98.80
32787;DHT22;19139;49.372;8.580;2023-09-07T08:32:42;22.50;98.80
32787;DHT22;19139;49.372;8.580;2023-09-07T08:35:10;22.50;98.70
32787;DHT22;19139;49.372;8.580;2023-09-07T08:37:40;22.50;98.70
32787;DHT22;19139;49.372;8.580;2023-09-07T08:40:07;22.50;98.70
32787;DHT22;19139;49.372;8.580;2023-09-07T08:42:37;22.60;98.70
32787;DHT22;19139;49.372;8.580;2023-09-07T08:45:05;22.60;98.60
32787;DHT22;19139;49.372;8.580;2023-09-07T08:47:35;22.60;98.60
32787;DHT22;19139;49.372;8.580;2023-09-07T08:50:04;22.60;98.50
32787;DHT22;19139;49.372;8.580;2023-09-07T08:52:34;22.60;98.50
32787;DHT22;19139;49.372;8.580;2023-09-07T08:55:02;22.70;98.50
32787;DHT22;19139;49.372;8.580;2023-09-07T08:57:32;22.70;98.40
32787;DHT22;19139;49.372;8.580;2023-09-07T08:59:59;22.70;98.40
32787;DHT22;19139;49.372;8.580;2023-09-07T09:02:26;22.70;98.30
32787;DHT22;19139;49.372;8.580;2023-09-07T09:04:53;22.80;98.30
32787;DHT22;19139;49.372;8.580;2023-09-07T09:07:20;22.80;98.20
32787;DHT22;19139;49.372;8.580;2023-09-07T09:09:48;22.80;98.20
32787;DHT22;19139;49.372;8.580;2023-09-07T09:12:16;22.80;98.10
32787;DHT22;19139;49.372;8.580;2023-09-07T09:14:44;22.90;98.10
32787;DHT22;19139;49.372;8.580;2023-09-07T09:17:12;22.90;98.10
32787;DHT22;19139;49.372;8.580;2023-09-07T09:19:40;22.90;98.00
32787;DHT22;19139;49.372;8.580;2023-09-07T09:22:11;22.90;98.10
32787;DHT22;19139;49.372;8.580;2023-09-07T09:24:38;22.90;98.00
32787;DHT22;19139;49.372;8.580;2023-09-07T09:27:05;23.00;98.10
32787;DHT22;19139;49.372;8.580;2023-09-07T09:29:35;23.00;98.00
32787;DHT22;19139;49.372;8.580;2023-09-07T09:32:06;23.00;98.00
32787;DHT22;19139;49.372;8.580;2023-09-07T09:34:35;23.00;98.00
32787;DHT22;19139;49.372;8.580;2023-09-07T09:37:02;23.00;97.90
32787;DHT22;19139;49.372;8.580;2023-09-07T09:39:33;23.00;97.90
32787;DHT22;19139;49.372;8.580;2023-09-07T09:42:01;23.10;97.90
32787;DHT22;19139;49.372;8.580;2023-09-07T09:44:29;23.10;97.90
32787;DHT22;19139;49.372;8.580;2023-09-07T09:46:57;23.10;97.80
32787;DHT22;19139;49.372;8.580;2023-09-07T09:49:26;23.10;98.20
32787;DHT22;19139;49.372;8.580;2023-09-07T09:51:54;23.10;97.80
32787;DHT22;19139;49.372;8.580;2023-09-07T09:54:24;23.10;97.90
32787;DHT22;19139;49.372;8.580;2023-09-07T09:56:51;23.10;98.00
32787;DHT22;19139;49.372;8.580;2023-09-07T09:59:17;23.10;98.00
32787;DHT22;19139;49.372;8.580;2023-09-07T10:01:47;23.10;98.00
32787;DHT22;19139;49.372;8.580;2023-09-07T10:04:17;23.10;98.10
32787;DHT22;19139;49.372;8.580;2023-09-07T10:06:54;23.10;98.10
32787;DHT22;19139;49.372;8.580;2023-09-07T10:09:22;23.10;98.10
32787;DHT22;19139;49.372;8.580;2023-09-07T10:11:52;23.10;98.10
32787;DHT22;19139;49.372;8.580;2023-09-07T10:14:22;23.10;98.10
32787;DHT22;19139;49.372;8.580;2023-09-07T10:16:53;23.10;98.20
32787;DHT22;19139;49.372;8.580;2023-09-07T10:19:26;23.10;98.20
32787;DHT22;19139;49.372;8.580;2023-09-07T10:21:56;23.10;98.20
32787;DHT22;19139;49.372;8.580;2023-09-07T10:24:31;23.10;98.20
32787;DHT22;19139;49.372;8.580;2023-09-07T10:27:06;23.10;98.30
32787;DHT22;19139;49.372;8.580;2023-09-07T10:29:42;23.10;98.30
32787;DHT22;19139;49.372;8.580;2023-09-07T10:32:10;23.10;98.30
32787;DHT22;19139;49.372;8.580;2023-09-07T10:34:45;23.10;98.30
32787;DHT22;19139;49.372;8.580;2023-09-07T10:37:13;23.10;98.30
32787;DHT22;19139;49.372;8.580;2023-09-07T10:39:42;23.10;98.30
32787;DHT22;19139;49.372;8.580;2023-09-07T10:42:25;23.10;98.30
32787;DHT22;19139;49.372;8.580;2023-09-07T10:44:53;23.10;98.30
32787;DHT22;19139;49.372;8.580;2023-09-07T10:47:20;23.10;98.30
32787;DHT22;19139;49.372;8.580;2023-09-07T10:49:47;23.20;98.40
32787;DHT22;19139;49.372;8.580;2023-09-07T10:52:14;23.20;98.30
32787;DHT22;19139;49.372;8.580;2023-09-07T10:54:40;23.20;98.30
32787;DHT22;19139;49.372;8.580;2023-09-07T10:57:11;23.20;98.30
32787;DHT22;19139;49.372;8.580;2023-09-07T10:59:44;23.20;98.20
32787;DHT22;19139;49.372;8.580;2023-09-07T11:02:14;23.20;98.10
32787;DHT22;19139;49.372;8.580;2023-09-07T11:04:42;23.20;98.10
32787;DHT22;19139;49.372;8.580;2023-09-07T11:07:09;23.20;98.10
32787;DHT22;19139;49.372;8.580;2023-09-07T11:09:43;23.20;98.00
32787;DHT22;19139;49.372;8.580;2023-09-07T11:12:13;23.20;97.90
32787;DHT22;19139;49.372;8.580;2023-09-07T11:14:42;23.20;97.90
32787;DHT22;19139;49.372;8.580;2023-09-07T11:17:10;23.20;97.80
32787;DHT22;19139;49.372;8.580;2023-09-07T11:19:36;23.20;97.80
32787;DHT22;19139;49.372;8.580;2023-09-07T11:22:03;23.20;97.80
32787;DHT22;19139;49.372;8.580;2023-09-07T11:24:32;23.20;97.80
32787;DHT22;19139;49.372;8.580;2023-09-07T11:27:01;23.30;97.90
32787;DHT22;19139;49.372;8.580;2023-09-07T11:29:33;23.30;97.90
32787;DHT22;19139;49.372;8.580;2023-09-07T11:32:07;23.30;98.00
32787;DHT22;19139;49.372;8.580;2023-09-07T11:34:34;23.30;98.10
32787;DHT22;19139;49.372;8.580;2023-09-07T11:37:04;23.30;98.10
32787;DHT22;19139;49.372;8.580;2023-09-07T11:39:31;23.30;98.10
32787;DHT22;19139;49.372;8.580;2023-09-07T11:41:57;23.30;98.20
32787;DHT22;19139;49.372;8.580;2023-09-07T11:44:24;23.30;98.20
32787;DHT22;19139;49.372;8.580;2023-09-07T11:46:51;23.30;98.20
32787;DHT22;19139;49.372;8.580;2023-09-07T11:49:17;23.30;98.10
32787;DHT22;19139;49.372;8.580;2023-09-07T11:51:46;23.40;98.10
32787;DHT22;19139;49.372;8.580;2023-09-07T11:54:14;23.30;98.10
32787;DHT22;19139;49.372;8.580;2023-09-07T11:56:40;23.30;98.00
32787;DHT22;19139;49.372;8.580;2023-09-07T11:59:09;23.30;97.90
32787;DHT22;19139;49.372;8.580;2023-09-07T12:01:36;23.40;97.90
32787;DHT22;19139;49.372;8.580;2023-09-07T12:04:03;23.40;97.80
32787;DHT22;19139;49.372;8.580;2023-09-07T12:06:31;23.40;97.80
32787;DHT22;19139;49.372;8.580;2023-09-07T12:09:01;23.40;97.70
32787;DHT22;19139;49.372;8.580;2023-09-07T12:11:28;23.40;97.70
32787;DHT22;19139;49.372;8.580;2023-09-07T12:13:55;23.40;97.60
32787;DHT22;19139;49.372;8.580;2023-09-07T12:16:22;23.30;97.50
32787;DHT22;19139;49.372;8.580;2023-09-07T12:18:49;23.40;97.50
32787;DHT22;19139;49.372;8.580;2023-09-07T12:21:15;23.40;97.50
32787;DHT22;19139;49.372;8.580;2023-09-07T12:23:42;23.40;97.50
32787;DHT22;19139;49.372;8.580;2023-09-07T12:26:09;23.40;97.40
32787;DHT22;19139;49.372;8.580;2023-09-07T12:28:36;23.40;97.40
32787;DHT22;19139;49.372;8.580;2023-09-07T12:31:03;23.40;97.30
32787;DHT22;19139;49.372;8.580;2023-09-07T12:33:29;23.40;97.30
32787;DHT22;19139;49.372;8.580;2023-09-07T12:35:57;23.40;97.20
32787;DHT22;19139;49.372;8.580;2023-09-07T12:38:25;23.40;97.20
32787;DHT22;19139;49.372;8.580;2023-09-07T12:40:55;23.40;97.20
32787;DHT22;19139;49.372;8.580;2023-09-07T12:43:22;23.40;97.10
32787;DHT22;19139;49.372;8.580;2023-09-07T12:45:48;23.40;97.10
32787;DHT22;19139;49.372;8.580;2023-09-07T12:48:15;23.40;97.10
32787;DHT22;19139;49.372;8.580;2023-09-07T12:50:42;23.40;97.10
32787;DHT22;19139;49.372;8.580;2023-09-07T12:53:09;23.40;97.10
32787;DHT22;19139;49.372;8.580;2023-09-07T12:55:36;23.40;97.00
32787;DHT22;19139;49.372;8.580;2023-09-07T12:58:03;23.50;97.00
32787;DHT22;19139;49.372;8.580;2023-09-07T13:00:30;23.50;97.00
32787;DHT22;19139;49.372;8.580;2023-09-07T13:02:56;23.50;97.00
32787;DHT22;19139;49.372;8.580;2023-09-07T13:05:23;23.40;96.90
32787;DHT22;19139;49.372;8.580;2023-09-07T13:07:50;23.50;96.90
32787;DHT22;19139;49.372;8.580;2023-09-07T13:10:17;23.50;96.90
32787;DHT22;19139;49.372;8.580;2023-09-07T13:12:45;23.40;96.80
32787;DHT22;19139;49.372;8.580;2023-09-07T13:15:11;23.50;96.80
32787;DHT22;19139;49.372;8.580;2023-09-07T13:17:38;23.50;96.80
32787;DHT22;19139;49.372;8.580;2023-09-07T13:20:06;23.50;96.80
32787;DHT22;19139;49.372;8.580;2023-09-07T13:22:32;23.50;96.80
32787;DHT22;19139;49.372;8.580;2023-09-07T13:24:59;23.50;96.70
32787;DHT22;19139;49.372;8.580;2023-09-07T13:27:27;23.50;96.70
32787;DHT22;19139;49.372;8.580;2023-09-07T13:29:54;23.50;96.70
32787;DHT22;19139;49.372;8.580;2023-09-07T13:32:20;23.50;96.70
32787;DHT22;19139;49.372;8.580;2023-09-07T13:34:47;23.50;96.70
32787;DHT22;19139;49.372;8.580;2023-09-07T13:37:14;23.50;96.60
32787;DHT22;19139;49.372;8.580;2023-09-07T13:39:40;23.50;96.60
32787;DHT22;19139;49.372;8.580;2023-09-07T13:42:07;23.50;96.60
32787;DHT22;19139;49.372;8.580;2023-09-07T13:44:34;23.50;96.60
32787;DHT22;19139;49.372;8.580;2023-09-07T13:47:00;23.50;96.60
32787;DHT22;19139;49.372;8.580;2023-09-07T13:49:27;23.60;96.60
32787;DHT22;19139;49.372;8.580;2023-09-07T13:51:54;23.60;96.60
32787;DHT22;19139;49.372;8.580;2023-09-07T13:54:21;23.50;96.50
32787;DHT22;19139;49.372;8.580;2023-09-07T13:56:47;23.60;96.50
32787;DHT22;19139;49.372;8.580;2023-09-07T13:59:14;23.60;96.50
32787;DHT22;19139;49.372;8.580;2023-09-07T14:01:41;23.60;96.50
32787;DHT22;19139;49.372;8.580;2023-09-07T14:04:07;23.60;96.50
32787;DHT22;19139;49.372;8.580;2023-09-07T14:06:34;23.60;96.50
32787;DHT22;19139;49.372;8.580;2023-09-07T14:09:01;23.60;96.50
32787;DHT22;19139;49.372;8.580;2023-09-07T14:11:27;23.60;96.50
32787;DHT22;19139;49.372;8.580;2023-09-07T14:13:54;23.60;96.40
32787;DHT22;19139;49.372;8.580;2023-09-07T14:16:22;23.60;96.40
32787;DHT22;19139;49.372;8.580;2023-09-07T14:18:49;23.60;96.40
32787;DHT22;19139;49.372;8.580;2023-09-07T14:21:17;23.60;96.40
32787;DHT22;19139;49.372;8.580;2023-09-07T14:23:44;23.60;96.40
32787;DHT22;19139;49.372;8.580;2023-09-07T14:26:11;23.60;96.30
32787;DHT22;19139;49.372;8.580;2023-09-07T14:28:38;23.60;96.30
32787;DHT22;19139;49.372;8.580;2023-09-07T14:31:06;23.70;96.30
32787;DHT22;19139;49.372;8.580;2023-09-07T14:33:34;23.70;96.30
32787;DHT22;19139;49.372;8.580;2023-09-07T14:36:08;23.70;96.30
32787;DHT22;19139;49.372;8.580;2023-09-07T14:38:35;23.70;96.30
32787;DHT22;19139;49.372;8.580;2023-09-07T14:41:08;23.70;96.30
32787;DHT22;19139;49.372;8.580;2023-09-07T14:43:38;23.70;96.30
32787;DHT22;19139;49.372;8.580;2023-09-07T14:46:04;23.70;96.40
32787;DHT22;19139;49.372;8.580;2023-09-07T14:48:31;23.80;96.50
32787;DHT22;19139;49.372;8.580;2023-09-07T14:50:58;23.80;96.90
32787;DHT22;19139;49.372;8.580;2023-09-07T14:53:25;23.80;96.60
32787;DHT22;19139;49.372;8.580;2023-09-07T14:55:51;23.80;96.60
32787;DHT22;19139;49.372;8.580;2023-09-07T14:58:18;23.80;96.60
32787;DHT22;19139;49.372;8.580;2023-09-07T15:00:45;23.80;96.60
32787;DHT22;19139;49.372;8.580;2023-09-07T15:03:11;23.90;96.70
32787;DHT22;19139;49.372;8.580;2023-09-07T15:05:38;23.80;96.70
32787;DHT22;19139;49.372;8.580;2023-09-07T15:08:05;23.90;96.80
32787;DHT22;19139;49.372;8.580;2023-09-07T15:10:33;23.90;96.80
32787;DHT22;19139;49.372;8.580;2023-09-07T15:13:03;23.90;96.80
32787;DHT22;19139;49.372;8.580;2023-09-07T15:15:30;23.90;96.80
32787;DHT22;19139;49.372;8.580;2023-09-07T15:18:00;23.90;96.90
32787;DHT22;19139;49.372;8.580;2023-09-07T15:20:27;23.90;96.90
32787;DHT22;19139;49.372;8.580;2023-09-07T15:22:53;23.90;96.90
32787;DHT22;19139;49.372;8.580;2023-09-07T15:25:20;23.90;96.90
32787;DHT22;19139;49.372;8.580;2023-09-07T15:27:47;23.90;96.80
32787;DHT22;19139;49.372;8.580;2023-09-07T15:30:14;24.00;96.80
32787;DHT22;19139;49.372;8.580;2023-09-07T15:32:41;24.00;96.80